KELZ/ELZ METAR and TAF weather

Enter ICAO airport designator
Station Type Date Time Source
KELZ METAR 2020/10/29 17:37 UTC NOAA

KELZ 291737Z AUTO 08004KT 2 1/2SM RA BR BKN003 OVC007 04/04 A2971 RMK AO2 P0007 T00440044


Station Type Date Time Source
KELZ Decoded METAR 2020/10/29 17:37 UTC NOAA

WELLSVILLE MUNICIPAL AIRPORT, NY, United States (KELZ) 42-06N 077-60W 646M
Oct 29, 2020 - 01:37 PM EDT / 2020.10.29 1737 UTC
Wind: from the E (080 degrees) at 5 MPH (4 KT):0
Visibility: 2 1/2 mile(s):0
Sky conditions: overcast
Weather: rain; mist
Precipitation last hour: 0.07 inches
Temperature: 39.9 F (4.4 C)
Dew Point: 39.9 F (4.4 C)
Relative Humidity: 100%
Pressure (altimeter): 29.71 in. Hg (1006 hPa)
ob: KELZ 291737Z AUTO 08004KT 2 1/2SM RA BR BKN003 OVC007 04/04 A2971 RMK AO2 P0007 T00440044
cycle: 17

Station Type Date Time Source
KELZ TAF UTC NOAA

Error!

Example: see airport list